sensor_id;sensor_type;location;lat;lon;timestamp;pressure;altitude;pressure_sealevel;temperature;humidity
7182;BME280;3632;42.724;23.298;2022-07-15T00:00:39;95468.38;;;20.25;64.02
7182;BME280;3632;42.724;23.298;2022-07-15T00:03:06;95475.00;;;20.27;63.59
7182;BME280;3632;42.724;23.298;2022-07-15T00:05:34;95464.00;;;20.25;64.15
7182;BME280;3632;42.724;23.298;2022-07-15T00:08:01;95478.06;;;20.31;63.84
7182;BME280;3632;42.724;23.298;2022-07-15T00:10:28;95475.25;;;20.40;62.52
7182;BME280;3632;42.724;23.298;2022-07-15T00:12:56;95481.41;;;20.39;63.09
7182;BME280;3632;42.724;23.298;2022-07-15T00:15:25;95477.72;;;20.34;62.66
7182;BME280;3632;42.724;23.298;2022-07-15T00:17:52;95468.75;;;20.44;61.65
7182;BME280;3632;42.724;23.298;2022-07-15T00:20:21;95446.69;;;20.26;61.42
7182;BME280;3632;42.724;23.298;2022-07-15T00:22:50;95482.09;;;20.33;61.73
7182;BME280;3632;42.724;23.298;2022-07-15T00:25:17;95476.63;;;20.28;62.24
7182;BME280;3632;42.724;23.298;2022-07-15T00:27:52;95477.91;;;20.32;61.58
7182;BME280;3632;42.724;23.298;2022-07-15T00:30:20;95483.09;;;20.32;61.28
7182;BME280;3632;42.724;23.298;2022-07-15T00:32:47;95472.94;;;20.23;62.00
7182;BME280;3632;42.724;23.298;2022-07-15T00:35:14;95480.47;;;19.87;63.68
7182;BME280;3632;42.724;23.298;2022-07-15T00:37:40;95437.19;;;19.19;65.35
7182;BME280;3632;42.724;23.298;2022-07-15T00:40:09;95475.19;;;19.49;65.83
7182;BME280;3632;42.724;23.298;2022-07-15T00:42:37;95428.88;;;19.01;66.43
7182;BME280;3632;42.724;23.298;2022-07-15T00:45:13;95482.09;;;19.18;67.28
7182;BME280;3632;42.724;23.298;2022-07-15T00:47:42;95477.03;;;19.33;66.77
7182;BME280;3632;42.724;23.298;2022-07-15T00:50:09;95475.38;;;19.40;66.39
7182;BME280;3632;42.724;23.298;2022-07-15T00:52:39;95470.81;;;19.11;67.10
7182;BME280;3632;42.724;23.298;2022-07-15T00:55:10;95459.81;;;18.70;68.17
7182;BME280;3632;42.724;23.298;2022-07-15T00:57:40;95465.16;;;18.52;68.42
7182;BME280;3632;42.724;23.298;2022-07-15T01:00:08;95456.25;;;18.63;68.47
7182;BME280;3632;42.724;23.298;2022-07-15T01:02:36;95465.75;;;18.79;68.39
7182;BME280;3632;42.724;23.298;2022-07-15T01:05:05;95458.00;;;18.87;68.05
7182;BME280;3632;42.724;23.298;2022-07-15T01:07:32;95456.00;;;18.97;67.67
7182;BME280;3632;42.724;23.298;2022-07-15T01:09:59;95445.22;;;18.85;67.30
7182;BME280;3632;42.724;23.298;2022-07-15T01:12:27;95458.72;;;19.11;67.04
7182;BME280;3632;42.724;23.298;2022-07-15T01:14:55;95453.00;;;19.24;66.81
7182;BME280;3632;42.724;23.298;2022-07-15T01:17:21;95443.63;;;19.23;66.44
7182;BME280;3632;42.724;23.298;2022-07-15T01:19:48;95449.75;;;19.30;66.32
7182;BME280;3632;42.724;23.298;2022-07-15T01:22:17;95446.41;;;19.22;67.50
7182;BME280;3632;42.724;23.298;2022-07-15T01:24:43;95448.25;;;19.05;68.23
7182;BME280;3632;42.724;23.298;2022-07-15T01:27:10;95415.91;;;18.70;69.23
7182;BME280;3632;42.724;23.298;2022-07-15T01:29:37;95442.47;;;18.95;68.70
7182;BME280;3632;42.724;23.298;2022-07-15T01:32:04;95440.84;;;18.94;68.58
7182;BME280;3632;42.724;23.298;2022-07-15T01:34:31;95422.34;;;18.74;68.84
7182;BME280;3632;42.724;23.298;2022-07-15T01:36:58;95353.72;;;18.33;69.11
7182;BME280;3632;42.724;23.298;2022-07-15T01:39:26;95445.41;;;18.84;69.51
7182;BME280;3632;42.724;23.298;2022-07-15T01:41:53;95440.94;;;18.69;70.37
7182;BME280;3632;42.724;23.298;2022-07-15T01:44:19;95443.22;;;18.56;71.02
7182;BME280;3632;42.724;23.298;2022-07-15T01:46:47;95439.00;;;18.55;71.19
7182;BME280;3632;42.724;23.298;2022-07-15T01:49:14;95450.31;;;18.54;71.40
7182;BME280;3632;42.724;23.298;2022-07-15T01:51:51;95450.97;;;18.56;71.84
7182;BME280;3632;42.724;23.298;2022-07-15T01:54:19;95452.09;;;18.54;71.69
7182;BME280;3632;42.724;23.298;2022-07-15T01:56:47;95358.44;;;18.05;71.65
7182;BME280;3632;42.724;23.298;2022-07-15T01:59:14;95455.13;;;18.65;70.92
7182;BME280;3632;42.724;23.298;2022-07-15T02:01:41;95448.34;;;18.64;71.12
7182;BME280;3632;42.724;23.298;2022-07-15T02:04:09;95446.25;;;18.68;71.09
7182;BME280;3632;42.724;23.298;2022-07-15T02:06:36;95449.63;;;18.68;71.25
7182;BME280;3632;42.724;23.298;2022-07-15T02:09:03;95445.16;;;18.62;71.45
7182;BME280;3632;42.724;23.298;2022-07-15T02:11:30;95423.91;;;18.20;72.11
7182;BME280;3632;42.724;23.298;2022-07-15T02:13:59;95450.47;;;18.37;73.20
7182;BME280;3632;42.724;23.298;2022-07-15T02:16:27;95454.19;;;18.34;72.87
7182;BME280;3632;42.724;23.298;2022-07-15T02:18:54;95445.97;;;18.31;73.17
7182;BME280;3632;42.724;23.298;2022-07-15T02:21:21;95455.78;;;18.35;73.01
7182;BME280;3632;42.724;23.298;2022-07-15T02:23:48;95452.75;;;18.32;73.40
7182;BME280;3632;42.724;23.298;2022-07-15T02:26:15;95457.56;;;18.26;73.39
7182;BME280;3632;42.724;23.298;2022-07-15T02:28:42;95439.88;;;18.15;73.30
7182;BME280;3632;42.724;23.298;2022-07-15T02:31:10;95439.34;;;18.04;73.61
7182;BME280;3632;42.724;23.298;2022-07-15T02:33:37;95453.53;;;18.08;74.26
7182;BME280;3632;42.724;23.298;2022-07-15T02:36:04;95451.28;;;17.89;74.98
7182;BME280;3632;42.724;23.298;2022-07-15T02:38:31;95457.59;;;17.86;75.50
7182;BME280;3632;42.724;23.298;2022-07-15T02:40:58;95456.28;;;17.82;75.50
7182;BME280;3632;42.724;23.298;2022-07-15T02:43:25;95445.81;;;17.84;75.42
7182;BME280;3632;42.724;23.298;2022-07-15T02:45:51;95452.25;;;17.88;74.74
7182;BME280;3632;42.724;23.298;2022-07-15T02:48:20;95448.88;;;17.95;74.45
7182;BME280;3632;42.724;23.298;2022-07-15T02:50:47;95415.53;;;17.77;74.31
7182;BME280;3632;42.724;23.298;2022-07-15T02:53:14;95449.03;;;18.02;74.13
7182;BME280;3632;42.724;23.298;2022-07-15T02:55:41;95443.06;;;18.01;74.47
7182;BME280;3632;42.724;23.298;2022-07-15T02:58:07;95452.09;;;18.05;73.67
7182;BME280;3632;42.724;23.298;2022-07-15T03:00:35;95450.97;;;18.08;73.80
7182;BME280;3632;42.724;23.298;2022-07-15T03:03:01;95457.44;;;18.12;73.36
7182;BME280;3632;42.724;23.298;2022-07-15T03:05:29;95451.94;;;18.15;73.17
7182;BME280;3632;42.724;23.298;2022-07-15T03:07:56;95452.28;;;18.12;73.64
7182;BME280;3632;42.724;23.298;2022-07-15T03:10:23;95457.75;;;18.09;73.95
7182;BME280;3632;42.724;23.298;2022-07-15T03:12:50;95455.81;;;18.03;74.34
7182;BME280;3632;42.724;23.298;2022-07-15T03:15:17;95460.31;;;18.01;74.46
7182;BME280;3632;42.724;23.298;2022-07-15T03:17:43;95457.13;;;17.99;74.37
7182;BME280;3632;42.724;23.298;2022-07-15T03:20:11;95453.53;;;17.92;75.18
7182;BME280;3632;42.724;23.298;2022-07-15T03:22:39;95444.38;;;17.89;75.11
7182;BME280;3632;42.724;23.298;2022-07-15T03:25:07;95449.19;;;17.92;74.61
7182;BME280;3632;42.724;23.298;2022-07-15T03:27:34;95444.53;;;17.96;74.24
7182;BME280;3632;42.724;23.298;2022-07-15T03:30:01;95442.28;;;17.93;74.19
7182;BME280;3632;42.724;23.298;2022-07-15T03:32:28;95444.38;;;17.97;73.94
7182;BME280;3632;42.724;23.298;2022-07-15T03:34:55;95425.03;;;17.85;73.34
7182;BME280;3632;42.724;23.298;2022-07-15T03:37:23;95445.97;;;17.90;73.93
7182;BME280;3632;42.724;23.298;2022-07-15T03:39:51;95445.19;;;17.90;73.75
7182;BME280;3632;42.724;23.298;2022-07-15T03:42:18;95446.28;;;17.95;73.80
7182;BME280;3632;42.724;23.298;2022-07-15T03:44:44;95445.19;;;17.98;73.83
7182;BME280;3632;42.724;23.298;2022-07-15T03:47:11;95449.38;;;17.99;73.46
7182;BME280;3632;42.724;23.298;2022-07-15T03:49:38;95451.78;;;18.00;72.73
7182;BME280;3632;42.724;23.298;2022-07-15T03:52:05;95455.16;;;18.01;71.96
7182;BME280;3632;42.724;23.298;2022-07-15T03:54:32;95456.78;;;18.02;71.80
7182;BME280;3632;42.724;23.298;2022-07-15T03:57:00;95410.66;;;17.83;70.70
7182;BME280;3632;42.724;23.298;2022-07-15T03:59:26;95460.66;;;18.14;71.04
7182;BME280;3632;42.724;23.298;2022-07-15T04:01:53;95462.59;;;18.20;70.90
7182;BME280;3632;42.724;23.298;2022-07-15T04:04:20;95462.88;;;18.33;69.72
7182;BME280;3632;42.724;23.298;2022-07-15T04:06:46;95464.34;;;18.44;69.20
7182;BME280;3632;42.724;23.298;2022-07-15T04:09:13;95461.44;;;18.55;68.01
7182;BME280;3632;42.724;23.298;2022-07-15T04:11:40;95461.41;;;18.63;66.68
7182;BME280;3632;42.724;23.298;2022-07-15T04:14:10;95456.75;;;18.66;66.52
7182;BME280;3632;42.724;23.298;2022-07-15T04:16:37;95462.06;;;18.65;66.31
7182;BME280;3632;42.724;23.298;2022-07-15T04:19:04;95457.06;;;18.63;66.38
7182;BME280;3632;42.724;23.298;2022-07-15T04:21:31;95429.81;;;18.61;66.20
7182;BME280;3632;42.724;23.298;2022-07-15T04:23:58;95459.63;;;18.80;66.08
7182;BME280;3632;42.724;23.298;2022-07-15T04:26:25;95400.13;;;18.49;66.19
7182;BME280;3632;42.724;23.298;2022-07-15T04:28:52;95464.78;;;18.88;66.57
7182;BME280;3632;42.724;23.298;2022-07-15T04:31:20;95457.66;;;18.90;66.82
7182;BME280;3632;42.724;23.298;2022-07-15T04:33:47;95458.00;;;18.87;66.19
7182;BME280;3632;42.724;23.298;2022-07-15T04:36:14;95453.09;;;19.00;65.68
7182;BME280;3632;42.724;23.298;2022-07-15T04:38:40;95463.13;;;18.95;66.11
7182;BME280;3632;42.724;23.298;2022-07-15T04:41:07;95457.97;;;18.95;66.71
7182;BME280;3632;42.724;23.298;2022-07-15T04:43:34;95455.03;;;18.98;66.99
7182;BME280;3632;42.724;23.298;2022-07-15T04:46:00;95460.34;;;19.04;66.25
7182;BME280;3632;42.724;23.298;2022-07-15T04:48:29;95467.25;;;19.12;65.86
7182;BME280;3632;42.724;23.298;2022-07-15T04:51:13;95466.94;;;19.07;65.46
7182;BME280;3632;42.724;23.298;2022-07-15T04:53:40;95438.78;;;18.81;65.53
7182;BME280;3632;42.724;23.298;2022-07-15T04:56:07;95464.91;;;18.94;65.96
7182;BME280;3632;42.724;23.298;2022-07-15T04:58:33;95459.59;;;18.96;66.24
7182;BME280;3632;42.724;23.298;2022-07-15T05:01:00;95470.22;;;19.01;66.42
7182;BME280;3632;42.724;23.298;2022-07-15T05:03:28;95470.34;;;19.07;66.71
7182;BME280;3632;42.724;23.298;2022-07-15T05:05:55;95456.88;;;18.81;66.29
7182;BME280;3632;42.724;23.298;2022-07-15T05:08:22;95405.41;;;18.80;66.13
7182;BME280;3632;42.724;23.298;2022-07-15T05:10:48;95461.75;;;19.15;65.70
7182;BME280;3632;42.724;23.298;2022-07-15T05:13:15;95468.94;;;19.36;65.82
7182;BME280;3632;42.724;23.298;2022-07-15T05:15:42;95465.19;;;19.46;65.48
7182;BME280;3632;42.724;23.298;2022-07-15T05:18:08;95467.78;;;19.46;65.64
7182;BME280;3632;42.724;23.298;2022-07-15T05:20:37;95450.81;;;19.44;64.90
7182;BME280;3632;42.724;23.298;2022-07-15T05:23:03;95443.06;;;19.36;65.17
7182;BME280;3632;42.724;23.298;2022-07-15T05:25:30;95461.59;;;19.55;65.28
7182;BME280;3632;42.724;23.298;2022-07-15T05:27:57;95457.19;;;19.64;64.77
7182;BME280;3632;42.724;23.298;2022-07-15T05:30:23;95463.94;;;19.65;64.07
7182;BME280;3632;42.724;23.298;2022-07-15T05:32:50;95456.84;;;19.67;64.35
7182;BME280;3632;42.724;23.298;2022-07-15T05:35:17;95461.19;;;19.67;64.54
7182;BME280;3632;42.724;23.298;2022-07-15T05:37:45;95451.78;;;19.74;64.68
7182;BME280;3632;42.724;23.298;2022-07-15T05:40:12;95462.59;;;19.77;64.76
7182;BME280;3632;42.724;23.298;2022-07-15T05:42:40;95463.22;;;19.79;64.62
7182;BME280;3632;42.724;23.298;2022-07-15T05:45:09;95439.13;;;19.79;64.20
7182;BME280;3632;42.724;23.298;2022-07-15T05:47:36;95461.78;;;19.99;64.02
7182;BME280;3632;42.724;23.298;2022-07-15T05:50:03;95455.94;;;20.05;64.16
7182;BME280;3632;42.724;23.298;2022-07-15T05:52:31;95458.97;;;20.09;64.02
7182;BME280;3632;42.724;23.298;2022-07-15T05:54:59;95403.13;;;19.77;64.11
7182;BME280;3632;42.724;23.298;2022-07-15T05:57:26;95453.72;;;19.94;64.48
7182;BME280;3632;42.724;23.298;2022-07-15T05:59:53;95463.41;;;20.23;63.68
7182;BME280;3632;42.724;23.298;2022-07-15T06:02:19;95449.88;;;20.36;63.27
7182;BME280;3632;42.724;23.298;2022-07-15T06:04:46;95457.59;;;20.44;63.63
7182;BME280;3632;42.724;23.298;2022-07-15T06:07:13;95454.09;;;20.51;63.13
7182;BME280;3632;42.724;23.298;2022-07-15T06:09:39;95457.78;;;20.57;62.54
7182;BME280;3632;42.724;23.298;2022-07-15T06:12:08;95460.09;;;20.67;62.43
7182;BME280;3632;42.724;23.298;2022-07-15T06:14:35;95451.09;;;20.77;62.12
7182;BME280;3632;42.724;23.298;2022-07-15T06:17:02;95451.00;;;20.85;61.59
7182;BME280;3632;42.724;23.298;2022-07-15T06:19:29;95436.00;;;20.81;61.44
7182;BME280;3632;42.724;23.298;2022-07-15T06:21:56;95448.44;;;21.00;61.14
7182;BME280;3632;42.724;23.298;2022-07-15T06:24:22;95449.91;;;21.09;60.79
7182;BME280;3632;42.724;23.298;2022-07-15T06:26:49;95448.97;;;20.95;61.26
7182;BME280;3632;42.724;23.298;2022-07-15T06:29:17;95455.28;;;20.93;61.69
7182;BME280;3632;42.724;23.298;2022-07-15T06:31:44;95448.44;;;21.00;61.16
7182;BME280;3632;42.724;23.298;2022-07-15T06:34:11;95452.50;;;21.09;61.40
7182;BME280;3632;42.724;23.298;2022-07-15T06:36:38;95450.22;;;21.29;60.93
7182;BME280;3632;42.724;23.298;2022-07-15T06:39:05;95445.09;;;21.35;60.57
7182;BME280;3632;42.724;23.298;2022-07-15T06:41:32;95405.06;;;21.23;60.15
7182;BME280;3632;42.724;23.298;2022-07-15T06:43:59;95436.97;;;21.38;59.94
7182;BME280;3632;42.724;23.298;2022-07-15T06:46:27;95438.53;;;21.39;60.30
7182;BME280;3632;42.724;23.298;2022-07-15T06:48:54;95438.91;;;21.51;60.29
7182;BME280;3632;42.724;23.298;2022-07-15T06:51:21;95436.31;;;21.72;60.33
7182;BME280;3632;42.724;23.298;2022-07-15T06:53:48;95439.22;;;21.84;59.56
7182;BME280;3632;42.724;23.298;2022-07-15T06:56:15;95430.50;;;21.92;58.94
7182;BME280;3632;42.724;23.298;2022-07-15T06:58:41;95429.00;;;21.97;58.54
7182;BME280;3632;42.724;23.298;2022-07-15T07:01:08;95434.34;;;22.17;58.37
7182;BME280;3632;42.724;23.298;2022-07-15T07:03:37;95436.00;;;22.24;58.01
7182;BME280;3632;42.724;23.298;2022-07-15T07:06:03;95436.50;;;22.35;57.92
7182;BME280;3632;42.724;23.298;2022-07-15T07:08:32;95433.75;;;22.43;57.07
7182;BME280;3632;42.724;23.298;2022-07-15T07:10:58;95434.59;;;22.50;56.23
7182;BME280;3632;42.724;23.298;2022-07-15T07:13:25;95422.69;;;22.62;55.79
7182;BME280;3632;42.724;23.298;2022-07-15T07:15:52;95433.31;;;22.67;55.29
7182;BME280;3632;42.724;23.298;2022-07-15T07:18:19;95422.81;;;22.75;55.18
7182;BME280;3632;42.724;23.298;2022-07-15T07:20:47;95428.47;;;22.85;54.95
7182;BME280;3632;42.724;23.298;2022-07-15T07:23:13;95420.34;;;22.95;54.38
7182;BME280;3632;42.724;23.298;2022-07-15T07:25:40;95368.34;;;22.60;53.93
7182;BME280;3632;42.724;23.298;2022-07-15T07:28:07;95414.34;;;23.01;53.42
7182;BME280;3632;42.724;23.298;2022-07-15T07:30:34;95413.34;;;22.95;52.73
7182;BME280;3632;42.724;23.298;2022-07-15T07:33:00;95416.59;;;23.04;52.54
7182;BME280;3632;42.724;23.298;2022-07-15T07:35:28;95414.44;;;23.20;51.63
7182;BME280;3632;42.724;23.298;2022-07-15T07:37:56;95414.50;;;23.34;51.09
7182;BME280;3632;42.724;23.298;2022-07-15T07:40:23;95422.31;;;23.40;51.28
7182;BME280;3632;42.724;23.298;2022-07-15T07:42:50;95417.91;;;23.41;51.47
7182;BME280;3632;42.724;23.298;2022-07-15T07:45:17;95415.91;;;23.43;51.58
7182;BME280;3632;42.724;23.298;2022-07-15T07:47:43;95417.59;;;23.57;52.15
7182;BME280;3632;42.724;23.298;2022-07-15T07:50:10;95419.22;;;23.71;52.13
7182;BME280;3632;42.724;23.298;2022-07-15T07:52:37;95367.13;;;23.51;52.01
7182;BME280;3632;42.724;23.298;2022-07-15T07:55:06;95419.28;;;23.97;52.57
7182;BME280;3632;42.724;23.298;2022-07-15T07:57:34;95405.03;;;24.06;51.15
7182;BME280;3632;42.724;23.298;2022-07-15T08:00:02;95403.50;;;24.19;50.86
7182;BME280;3632;42.724;23.298;2022-07-15T08:02:29;95395.88;;;24.30;51.51
7182;BME280;3632;42.724;23.298;2022-07-15T08:04:56;95404.69;;;24.29;50.41
7182;BME280;3632;42.724;23.298;2022-07-15T08:07:22;95371.81;;;23.95;50.33
7182;BME280;3632;42.724;23.298;2022-07-15T08:09:49;95402.88;;;24.30;49.39
7182;BME280;3632;42.724;23.298;2022-07-15T08:12:17;95401.66;;;24.45;49.50
7182;BME280;3632;42.724;23.298;2022-07-15T08:14:44;95393.63;;;24.53;49.76
7182;BME280;3632;42.724;23.298;2022-07-15T08:17:11;95391.59;;;24.62;48.88
7182;BME280;3632;42.724;23.298;2022-07-15T08:19:37;95388.97;;;24.75;48.36
7182;BME280;3632;42.724;23.298;2022-07-15T08:22:04;95388.75;;;24.96;48.44
7182;BME280;3632;42.724;23.298;2022-07-15T08:24:31;95392.91;;;25.04;47.28
7182;BME280;3632;42.724;23.298;2022-07-15T08:26:57;95383.47;;;25.16;47.37
7182;BME280;3632;42.724;23.298;2022-07-15T08:29:26;95391.19;;;25.29;48.14
7182;BME280;3632;42.724;23.298;2022-07-15T08:31:52;95388.53;;;25.42;48.41
7182;BME280;3632;42.724;23.298;2022-07-15T08:34:19;95384.81;;;25.63;48.24
7182;BME280;3632;42.724;23.298;2022-07-15T08:36:46;95384.00;;;25.69;47.70
7182;BME280;3632;42.724;23.298;2022-07-15T08:39:12;95376.09;;;25.82;47.20
7182;BME280;3632;42.724;23.298;2022-07-15T08:41:41;95378.34;;;25.72;45.89
7182;BME280;3632;42.724;23.298;2022-07-15T08:44:08;95364.81;;;25.88;46.37
7182;BME280;3632;42.724;23.298;2022-07-15T08:46:36;95369.53;;;25.98;46.95
7182;BME280;3632;42.724;23.298;2022-07-15T08:49:06;95362.19;;;26.13;46.28
7182;BME280;3632;42.724;23.298;2022-07-15T08:51:35;95362.69;;;26.28;45.75
7182;BME280;3632;42.724;23.298;2022-07-15T08:54:04;95366.97;;;26.41;45.31
7182;BME280;3632;42.724;23.298;2022-07-15T08:56:31;95313.84;;;26.04;43.61
7182;BME280;3632;42.724;23.298;2022-07-15T08:59:00;95368.81;;;26.59;45.20
7182;BME280;3632;42.724;23.298;2022-07-15T09:01:27;95190.44;;;25.66;43.94
7182;BME280;3632;42.724;23.298;2022-07-15T09:03:55;95360.50;;;26.87;43.47
7182;BME280;3632;42.724;23.298;2022-07-15T09:06:33;95348.84;;;26.82;42.50
7182;BME280;3632;42.724;23.298;2022-07-15T09:09:21;95357.31;;;27.03;42.35
7182;BME280;3632;42.724;23.298;2022-07-15T09:11:53;95355.91;;;27.00;40.91
7182;BME280;3632;42.724;23.298;2022-07-15T09:14:21;95355.41;;;26.92;41.12
7182;BME280;3632;42.724;23.298;2022-07-15T09:16:48;95357.13;;;26.86;41.74
7182;BME280;3632;42.724;23.298;2022-07-15T09:19:16;95350.75;;;27.12;42.26
7182;BME280;3632;42.724;23.298;2022-07-15T09:21:43;95352.47;;;27.36;43.64
7182;BME280;3632;42.724;23.298;2022-07-15T09:24:16;95339.44;;;27.30;41.37
7182;BME280;3632;42.724;23.298;2022-07-15T09:26:43;95351.53;;;27.60;41.43
7182;BME280;3632;42.724;23.298;2022-07-15T09:29:14;95349.28;;;27.76;43.43
7182;BME280;3632;42.724;23.298;2022-07-15T09:31:56;95340.44;;;27.88;42.25
7182;BME280;3632;42.724;23.298;2022-07-15T09:34:58;95346.84;;;28.04;41.15
7182;BME280;3632;42.724;23.298;2022-07-15T09:37:25;95340.50;;;28.23;40.61
7182;BME280;3632;42.724;23.298;2022-07-15T09:39:56;95345.63;;;28.30;41.16
7182;BME280;3632;42.724;23.298;2022-07-15T09:42:23;95339.47;;;28.47;40.66
7182;BME280;3632;42.724;23.298;2022-07-15T09:44:50;95336.25;;;28.57;38.93
7182;BME280;3632;42.724;23.298;2022-07-15T09:47:18;95341.63;;;28.62;40.14
7182;BME280;3632;42.724;23.298;2022-07-15T09:49:46;95337.75;;;28.76;41.04
7182;BME280;3632;42.724;23.298;2022-07-15T09:52:14;95341.00;;;28.95;39.63
7182;BME280;3632;42.724;23.298;2022-07-15T09:54:43;95323.69;;;28.94;39.46
7182;BME280;3632;42.724;23.298;2022-07-15T09:57:11;95338.31;;;29.18;38.80
7182;BME280;3632;42.724;23.298;2022-07-15T09:59:40;95339.03;;;29.14;35.95
7182;BME280;3632;42.724;23.298;2022-07-15T10:02:07;95335.28;;;29.10;34.47
7182;BME280;3632;42.724;23.298;2022-07-15T10:04:34;95332.50;;;29.16;34.98
7182;BME280;3632;42.724;23.298;2022-07-15T10:07:03;95329.44;;;29.19;33.81
7182;BME280;3632;42.724;23.298;2022-07-15T10:09:32;95311.50;;;29.16;33.76
7182;BME280;3632;42.724;23.298;2022-07-15T10:12:03;95331.25;;;29.47;33.68
7182;BME280;3632;42.724;23.298;2022-07-15T10:15:01;95333.59;;;29.60;34.60
7182;BME280;3632;42.724;23.298;2022-07-15T10:17:50;95322.16;;;29.83;35.47
7182;BME280;3632;42.724;23.298;2022-07-15T10:20:35;95319.06;;;29.86;34.55
7182;BME280;3632;42.724;23.298;2022-07-15T10:23:20;95317.38;;;30.13;34.41
7182;BME280;3632;42.724;23.298;2022-07-15T10:25:58;95313.91;;;30.08;35.90
7182;BME280;3632;42.724;23.298;2022-07-15T10:28:38;95311.94;;;30.36;34.78
7182;BME280;3632;42.724;23.298;2022-07-15T10:31:14;95315.69;;;30.40;34.37
7182;BME280;3632;42.724;23.298;2022-07-15T10:33:42;95318.81;;;30.54;35.81
7182;BME280;3632;42.724;23.298;2022-07-15T10:36:08;95308.16;;;30.66;33.57
7182;BME280;3632;42.724;23.298;2022-07-15T10:38:37;95305.72;;;30.81;32.64
7182;BME280;3632;42.724;23.298;2022-07-15T10:41:08;95295.81;;;31.10;34.32
7182;BME280;3632;42.724;23.298;2022-07-15T10:43:40;95298.81;;;31.18;33.95
7182;BME280;3632;42.724;23.298;2022-07-15T10:46:27;95303.63;;;31.26;33.32
7182;BME280;3632;42.724;23.298;2022-07-15T10:49:29;95293.19;;;31.37;32.09
7182;BME280;3632;42.724;23.298;2022-07-15T10:52:16;95286.31;;;31.62;33.23
7182;BME280;3632;42.724;23.298;2022-07-15T10:54:47;95265.91;;;31.48;31.55
7182;BME280;3632;42.724;23.298;2022-07-15T10:57:15;95292.03;;;31.81;32.72
7182;BME280;3632;42.724;23.298;2022-07-15T10:59:49;95290.06;;;31.98;31.34
7182;BME280;3632;42.724;23.298;2022-07-15T11:02:18;95281.25;;;32.20;31.22
7182;BME280;3632;42.724;23.298;2022-07-15T11:04:47;95269.63;;;32.15;28.58
7182;BME280;3632;42.724;23.298;2022-07-15T11:07:27;95278.06;;;32.17;29.61
7182;BME280;3632;42.724;23.298;2022-07-15T11:10:13;95277.72;;;32.46;29.50
7182;BME280;3632;42.724;23.298;2022-07-15T11:13:02;95276.47;;;32.58;28.38
7182;BME280;3632;42.724;23.298;2022-07-15T11:15:29;95273.50;;;32.50;27.98
7182;BME280;3632;42.724;23.298;2022-07-15T11:17:56;95274.25;;;32.40;28.29
7182;BME280;3632;42.724;23.298;2022-07-15T11:20:27;95269.81;;;32.46;28.48
7182;BME280;3632;42.724;23.298;2022-07-15T11:22:56;95242.34;;;32.42;29.35
7182;BME280;3632;42.724;23.298;2022-07-15T11:25:27;95268.38;;;32.75;28.27
7182;BME280;3632;42.724;23.298;2022-07-15T11:28:00;95262.59;;;32.93;29.17
7182;BME280;3632;42.724;23.298;2022-07-15T11:30:28;95259.47;;;33.06;29.38
7182;BME280;3632;42.724;23.298;2022-07-15T11:32:56;95268.81;;;33.34;27.69
7182;BME280;3632;42.724;23.298;2022-07-15T11:35:24;95254.84;;;33.44;27.28
7182;BME280;3632;42.724;23.298;2022-07-15T11:38:00;95256.41;;;33.55;26.13
7182;BME280;3632;42.724;23.298;2022-07-15T11:40:30;95264.88;;;33.47;26.34
7182;BME280;3632;42.724;23.298;2022-07-15T11:43:16;95255.34;;;33.41;27.27
7182;BME280;3632;42.724;23.298;2022-07-15T11:46:01;95253.25;;;33.63;27.51
7182;BME280;3632;42.724;23.298;2022-07-15T11:48:34;95250.59;;;33.38;26.41
7182;BME280;3632;42.724;23.298;2022-07-15T11:51:01;95247.16;;;33.52;28.93
7182;BME280;3632;42.724;23.298;2022-07-15T11:53:34;95241.06;;;33.62;27.43
7182;BME280;3632;42.724;23.298;2022-07-15T11:56:03;95250.34;;;33.55;26.50
7182;BME280;3632;42.724;23.298;2022-07-15T11:58:32;95237.13;;;33.70;26.89
7182;BME280;3632;42.724;23.298;2022-07-15T12:01:01;95237.38;;;33.63;26.90
7182;BME280;3632;42.724;23.298;2022-07-15T12:03:39;95183.16;;;33.05;26.83
7182;BME280;3632;42.724;23.298;2022-07-15T12:06:10;95233.69;;;33.94;28.17
7182;BME280;3632;42.724;23.298;2022-07-15T12:08:39;95236.31;;;34.20;28.77
7182;BME280;3632;42.724;23.298;2022-07-15T12:11:14;95238.16;;;34.19;28.06
7182;BME280;3632;42.724;23.298;2022-07-15T12:13:43;95226.22;;;34.32;28.35
7182;BME280;3632;42.724;23.298;2022-07-15T12:16:10;95238.03;;;34.55;27.24
7182;BME280;3632;42.724;23.298;2022-07-15T12:18:37;95236.91;;;34.76;28.23
7182;BME280;3632;42.724;23.298;2022-07-15T12:21:04;95237.63;;;34.97;29.98
7182;BME280;3632;42.724;23.298;2022-07-15T12:23:32;95233.88;;;35.03;28.63
7182;BME280;3632;42.724;23.298;2022-07-15T12:26:06;95228.00;;;35.16;29.49
7182;BME280;3632;42.724;23.298;2022-07-15T12:28:36;95230.25;;;35.33;27.47
7182;BME280;3632;42.724;23.298;2022-07-15T12:31:03;95220.94;;;35.40;27.68
7182;BME280;3632;42.724;23.298;2022-07-15T12:33:34;95222.31;;;35.33;27.74
7182;BME280;3632;42.724;23.298;2022-07-15T12:36:15;95210.34;;;35.35;27.49
7182;BME280;3632;42.724;23.298;2022-07-15T12:38:43;95209.88;;;35.28;26.86
7182;BME280;3632;42.724;23.298;2022-07-15T12:41:23;95218.13;;;35.60;26.94
7182;BME280;3632;42.724;23.298;2022-07-15T12:43:53;95224.31;;;35.85;26.64
7182;BME280;3632;42.724;23.298;2022-07-15T12:46:21;95217.59;;;35.63;25.26
7182;BME280;3632;42.724;23.298;2022-07-15T12:49:09;95216.66;;;35.44;26.72
7182;BME280;3632;42.724;23.298;2022-07-15T12:51:35;95202.88;;;35.47;27.17
7182;BME280;3632;42.724;23.298;2022-07-15T12:54:03;95211.66;;;35.43;25.85
7182;BME280;3632;42.724;23.298;2022-07-15T12:56:30;95210.75;;;35.52;26.63
7182;BME280;3632;42.724;23.298;2022-07-15T12:58:57;95205.50;;;35.47;26.12
7182;BME280;3632;42.724;23.298;2022-07-15T13:01:24;95201.78;;;35.09;26.35
7182;BME280;3632;42.724;23.298;2022-07-15T13:03:51;95206.38;;;34.89;26.93
7182;BME280;3632;42.724;23.298;2022-07-15T13:06:19;95216.72;;;34.90;29.30
7182;BME280;3632;42.724;23.298;2022-07-15T13:08:46;95212.72;;;34.93;27.84
7182;BME280;3632;42.724;23.298;2022-07-15T13:11:13;95215.25;;;34.59;28.50
7182;BME280;3632;42.724;23.298;2022-07-15T13:13:40;95215.00;;;34.55;30.61
7182;BME280;3632;42.724;23.298;2022-07-15T13:16:08;95215.91;;;34.95;29.47
7182;BME280;3632;42.724;23.298;2022-07-15T13:18:35;95200.50;;;35.02;30.52